Time;durP1;ratioP1;P1;durP2;ratioP2;P2;SDS_P1;SDS_P2;PMS_P1;PMS_P2;Temp;Humidity;BMP_temperature;BMP_pressure;BME280_temperature;BME280_humidity;BME280_pressure;Samples;Min_cycle;Max_cycle;Signal;HPM_P1;HPM_P2
2022/01/11 00:01:40;;;;;;;33.38;24.63;;;5.40;79.20;;;;;;10946399;32;20034;-73
2022/01/11 00:07:44;;;;;;;40.97;32.03;;;5.50;78.90;;;;;;10945446;32;20019;-73
2022/01/11 00:13:46;;;;;;;38.28;27.00;;;5.50;78.80;;;;;;10941764;32;20055;-70
2022/01/11 00:19:49;;;;;;;31.58;23.73;;;5.70;78.40;;;;;;10945685;32;20407;-70
2022/01/11 00:25:53;;;;;;;37.15;29.60;;;5.70;78.20;;;;;;10944297;32;20066;-70
2022/01/11 00:32:00;;;;;;;36.45;23.87;;;5.90;78.90;;;;;;10945370;32;20442;-70
2022/01/11 00:38:03;;;;;;;28.48;22.08;;;5.80;78.30;;;;;;10945217;32;20392;-70
2022/01/11 00:44:06;;;;;;;39.83;27.15;;;5.70;78.00;;;;;;10944983;32;20226;-70
2022/01/11 00:50:09;;;;;;;28.02;22.87;;;5.70;78.00;;;;;;10944719;32;20019;-70
2022/01/11 00:56:12;;;;;;;29.10;23.10;;;5.70;78.00;;;;;;10944415;32;20430;-70
2022/01/11 01:02:15;;;;;;;33.78;26.08;;;5.60;78.00;;;;;;10944067;32;20023;-70
2022/01/11 01:08:17;;;;;;;39.83;27.80;;;5.80;78.80;;;;;;10943924;32;20324;-70
2022/01/11 01:14:21;;;;;;;26.12;21.35;;;6.00;78.40;;;;;;10943887;32;20336;-70
2022/01/11 01:20:25;;;;;;;32.53;27.23;;;5.80;77.80;;;;;;10943341;32;20328;-70
2022/01/11 01:26:27;;;;;;;30.62;23.38;;;5.20;78.70;;;;;;10943347;32;20037;-70
2022/01/11 01:32:29;;;;;;;34.75;24.92;;;5.40;79.30;;;;;;10943225;32;20025;-70
2022/01/11 01:38:33;;;;;;;35.53;25.25;;;5.80;79.20;;;;;;10942861;32;20015;-70
2022/01/11 01:44:35;;;;;;;34.08;27.58;;;5.80;78.50;;;;;;10960594;27;20049;-70
2022/01/11 01:50:38;;;;;;;37.47;29.37;;;5.90;78.10;;;;;;10980291;32;20051;-70
2022/01/11 01:56:41;;;;;;;30.15;22.45;;;6.00;77.70;;;;;;10976941;32;20023;-70
2022/01/11 02:02:44;;;;;;;33.95;24.58;;;5.90;77.20;;;;;;10979711;32;20029;-70
2022/01/11 02:08:48;;;;;;;33.97;27.60;;;5.70;77.30;;;;;;10966353;32;20050;-70
2022/01/11 02:14:50;;;;;;;25.90;19.80;;;5.80;77.60;;;;;;10979676;32;20045;-70
2022/01/11 02:20:58;;;;;;;29.52;22.45;;;5.80;76.80;;;;;;10979331;32;20023;-70
2022/01/11 02:27:01;;;;;;;33.00;22.55;;;5.70;77.50;;;;;;10977773;32;20018;-70
2022/01/11 02:33:09;;;;;;;25.08;19.62;;;5.80;77.30;;;;;;10984555;32;20327;-70
2022/01/11 02:39:12;;;;;;;35.67;25.80;;;5.70;76.80;;;;;;10985637;32;20395;-70
2022/01/11 02:45:18;;;;;;;24.70;19.73;;;5.60;77.00;;;;;;10973335;32;20023;-70
2022/01/11 02:51:21;;;;;;;39.85;25.52;;;5.60;76.70;;;;;;10984839;32;20022;-70
2022/01/11 02:57:24;;;;;;;27.17;19.70;;;5.70;76.70;;;;;;10985647;32;20051;-70
2022/01/11 03:03:27;;;;;;;38.42;27.13;;;5.80;76.30;;;;;;10972884;32;20445;-70
2022/01/11 03:09:39;;;;;;;32.88;23.62;;;5.60;76.40;;;;;;10984928;32;20027;-70
2022/01/11 03:15:43;;;;;;;36.30;26.15;;;5.70;76.30;;;;;;10981691;32;20027;-70
2022/01/11 03:21:45;;;;;;;28.90;22.50;;;5.80;76.10;;;;;;10985471;32;20053;-70
2022/01/11 03:27:48;;;;;;;28.38;21.30;;;5.80;75.90;;;;;;10985213;32;20053;-70
2022/01/11 03:33:51;;;;;;;31.80;22.85;;;5.70;75.30;;;;;;10985030;32;20015;-70
2022/01/11 03:39:53;;;;;;;33.00;24.95;;;5.40;76.00;;;;;;10984900;32;20026;-70
2022/01/11 03:45:57;;;;;;;29.85;22.92;;;5.30;76.50;;;;;;10984300;32;20476;-70
2022/01/11 03:51:59;;;;;;;30.80;21.95;;;5.40;76.30;;;;;;10981919;32;20054;-70
2022/01/11 03:58:02;;;;;;;26.52;20.12;;;5.40;76.00;;;;;;10983796;32;20335;-70
2022/01/11 04:04:05;;;;;;;24.95;18.85;;;5.40;75.80;;;;;;10983552;32;20038;-70
2022/01/11 04:10:09;;;;;;;39.25;23.83;;;5.00;75.40;;;;;;10983708;32;20045;-70
2022/01/11 04:16:13;;;;;;;30.90;22.48;;;4.50;77.30;;;;;;10983662;32;20027;-70
2022/01/11 04:22:15;;;;;;;29.87;21.35;;;4.80;77.60;;;;;;10983347;32;20045;-70
2022/01/11 04:28:17;;;;;;;38.58;28.60;;;4.90;77.60;;;;;;10983088;32;20026;-70
2022/01/11 04:34:20;;;;;;;26.10;19.37;;;4.90;77.40;;;;;;10982724;32;20026;-70
2022/01/11 04:40:23;;;;;;;24.95;17.52;;;4.90;77.10;;;;;;10982500;32;20426;-70
2022/01/11 04:46:26;;;;;;;35.17;25.70;;;4.70;77.20;;;;;;10982438;32;20479;-74
2022/01/11 04:52:29;;;;;;;28.05;22.80;;;4.80;77.50;;;;;;10981902;32;20433;-74
2022/01/11 04:58:32;;;;;;;26.58;20.27;;;4.90;77.40;;;;;;10968756;32;20052;-74
2022/01/11 05:04:35;;;;;;;30.62;24.77;;;4.70;76.90;;;;;;10964949;32;20027;-74
2022/01/11 05:10:42;;;;;;;24.55;19.85;;;4.70;77.70;;;;;;10981746;32;20386;-74
2022/01/11 05:16:44;;;;;;;30.00;23.23;;;4.80;77.50;;;;;;10981402;32;20049;-74
2022/01/11 05:22:47;;;;;;;27.27;19.95;;;5.10;77.90;;;;;;10977732;32;20057;-74
2022/01/11 05:28:49;;;;;;;31.60;24.50;;;5.20;77.20;;;;;;10978723;32;20027;-74
2022/01/11 05:34:51;;;;;;;33.13;23.12;;;5.20;76.70;;;;;;10967458;32;20045;-74
2022/01/11 05:40:54;;;;;;;30.08;22.67;;;5.20;76.70;;;;;;10980330;32;20056;-74
2022/01/11 05:46:56;;;;;;;27.73;21.83;;;5.40;77.30;;;;;;10980349;32;20077;-74
2022/01/11 05:52:59;;;;;;;30.17;23.58;;;5.30;76.70;;;;;;10966650;32;20049;-74
2022/01/11 05:59:02;;;;;;;27.40;20.12;;;5.10;76.40;;;;;;10979886;32;20061;-74
2022/01/11 06:05:05;;;;;;;31.23;18.85;;;5.10;76.30;;;;;;10979349;32;20026;-74
2022/01/11 06:11:11;;;;;;;23.35;18.65;;;5.10;76.10;;;;;;10966469;32;20045;-74
2022/01/11 06:17:13;;;;;;;27.30;20.30;;;4.90;75.80;;;;;;10979753;32;20027;-74
2022/01/11 06:23:16;;;;;;;25.40;22.75;;;4.50;76.30;;;;;;10966221;32;20096;-74
2022/01/11 06:29:18;;;;;;;29.95;22.27;;;4.40;77.10;;;;;;10965959;32;20026;-74
2022/01/11 06:35:22;;;;;;;31.00;24.80;;;4.70;76.70;;;;;;10979362;32;20019;-74
2022/01/11 06:41:25;;;;;;;35.47;27.77;;;4.90;76.40;;;;;;10978888;32;20027;-74
2022/01/11 06:47:28;;;;;;;31.08;24.98;;;5.10;77.00;;;;;;10965610;32;20042;-74
2022/01/11 06:53:32;;;;;;;30.45;23.75;;;5.10;76.60;;;;;;10961296;32;20026;-74
2022/01/11 06:59:37;;;;;;;30.15;24.52;;;5.00;76.30;;;;;;10978890;32;20030;-74
2022/01/11 07:05:40;;;;;;;26.92;21.50;;;5.00;76.10;;;;;;10965374;32;20030;-74
2022/01/11 07:11:42;;;;;;;26.73;21.48;;;4.90;75.70;;;;;;10977660;32;20049;-74
2022/01/11 07:17:45;;;;;;;33.45;23.38;;;4.20;76.40;;;;;;10952998;32;20053;-75
2022/01/11 07:23:50;;;;;;;35.00;27.33;;;3.90;77.70;;;;;;10947398;32;20062;-75
2022/01/11 07:29:53;;;;;;;45.60;34.80;;;4.10;78.00;;;;;;10947073;32;20023;-75
2022/01/11 07:35:55;;;;;;;46.95;33.00;;;4.40;77.60;;;;;;10947312;32;20388;-75
2022/01/11 07:41:57;;;;;;;41.30;28.55;;;4.50;77.30;;;;;;10942516;32;20098;-71
2022/01/11 07:48:06;;;;;;;40.17;32.95;;;4.70;77.30;;;;;;10946877;32;20019;-71
2022/01/11 07:54:09;;;;;;;37.70;28.08;;;4.70;77.50;;;;;;10943545;32;20449;-71
2022/01/11 08:00:13;;;;;;;33.17;25.52;;;4.80;77.90;;;;;;10946344;32;20016;-71
2022/01/11 08:06:16;;;;;;;29.12;24.05;;;4.90;77.50;;;;;;10945963;32;20084;-71
2022/01/11 08:12:20;;;;;;;27.73;22.08;;;4.70;77.60;;;;;;10939946;32;20053;-71
2022/01/11 08:18:23;;;;;;;28.30;22.37;;;4.70;78.60;;;;;;10952473;32;20335;-71
2022/01/11 08:24:26;;;;;;;39.65;27.20;;;5.10;78.80;;;;;;10957423;32;20395;-71
2022/01/11 08:30:29;;;;;;;31.08;22.77;;;5.30;78.50;;;;;;10944090;32;20366;-71
2022/01/11 08:36:32;;;;;;;26.37;19.87;;;5.50;78.40;;;;;;10975356;32;20050;-71
2022/01/11 08:42:35;;;;;;;31.00;22.42;;;5.70;78.40;;;;;;10982316;32;20046;-71
2022/01/11 08:48:38;;;;;;;34.75;23.35;;;5.20;78.70;;;;;;10943746;32;20023;-70
2022/01/11 08:54:41;;;;;;;26.62;21.55;;;5.40;79.70;;;;;;10944348;32;20413;-70
2022/01/11 09:00:46;;;;;;;26.45;21.50;;;5.70;79.90;;;;;;10944546;32;20046;-70
2022/01/11 09:06:50;;;;;;;29.73;19.65;;;6.10;79.90;;;;;;10942068;32;20015;-70
2022/01/11 09:12:53;;;;;;;21.58;15.73;;;6.20;79.80;;;;;;10943076;32;20340;-69
2022/01/11 09:18:56;;;;;;;19.73;14.93;;;6.20;80.00;;;;;;10953511;32;20409;-69
2022/01/11 09:25:00;;;;;;;16.60;13.80;;;6.20;80.30;;;;;;10967611;32;20023;-69
2022/01/11 09:31:02;;;;;;;22.42;14.65;;;5.90;80.60;;;;;;10972118;32;20019;-69
2022/01/11 09:37:07;;;;;;;21.83;15.05;;;6.20;81.10;;;;;;10980379;32;20027;-73
2022/01/11 09:43:11;;;;;;;16.70;11.32;;;6.20;81.20;;;;;;10984804;27;20312;-73
2022/01/11 09:49:15;;;;;;;13.68;9.25;;;5.90;80.60;;;;;;10952334;32;20041;-72
2022/01/11 09:55:18;;;;;;;15.27;8.85;;;5.80;81.60;;;;;;10953849;32;20046;-69
2022/01/11 10:01:21;;;;;;;12.02;8.68;;;5.80;81.80;;;;;;10929240;32;20045;-69
2022/01/11 10:07:37;;;;;;;11.65;8.98;;;6.20;82.10;;;;;;10942080;32;20026;-69
2022/01/11 10:13:41;;;;;;;10.57;6.78;;;6.30;81.70;;;;;;10928363;32;20027;-69
2022/01/11 10:19:48;;;;;;;9.13;6.00;;;6.40;81.80;;;;;;10939698;32;20031;-69
2022/01/11 10:25:51;;;;;;;10.60;6.18;;;6.40;81.70;;;;;;10941520;32;20371;-69
2022/01/11 10:31:55;;;;;;;14.13;6.37;;;6.50;80.50;;;;;;10941445;32;20414;-69
2022/01/11 10:38:00;;;;;;;8.20;5.85;;;6.80;81.30;;;;;;10938428;32;20058;-69
2022/01/11 10:44:03;;;;;;;11.63;5.45;;;7.00;81.50;;;;;;10936643;32;20065;-69
2022/01/11 10:50:18;;;;;;;9.52;4.85;;;7.20;81.80;;;;;;10941438;32;20379;-70
2022/01/11 10:56:41;;;;;;;7.70;3.78;;;7.60;81.40;;;;;;10944443;32;20325;-70
2022/01/11 11:02:47;;;;;;;4.80;2.97;;;7.80;81.30;;;;;;10948354;32;20023;-70
2022/01/11 11:08:50;;;;;;;6.32;3.83;;;7.90;80.20;;;;;;10947783;32;20023;-70
2022/01/11 11:14:57;;;;;;;6.32;3.35;;;7.90;79.70;;;;;;10945087;32;20027;-70
2022/01/11 11:21:18;;;;;;;5.95;3.25;;;8.10;79.20;;;;;;10947963;32;20053;-70
2022/01/11 11:27:42;;;;;;;3.65;2.30;;;8.50;80.00;;;;;;10947301;32;20058;-70
2022/01/11 11:33:50;;;;;;;4.93;2.45;;;8.90;80.30;;;;;;10947428;32;20038;-71
2022/01/11 11:39:59;;;;;;;5.85;2.65;;;9.20;80.70;;;;;;10947250;32;20324;-70
2022/01/11 11:46:01;;;;;;;4.00;2.10;;;9.50;80.70;;;;;;10946706;32;20350;-71
2022/01/11 11:52:34;;;;;;;4.30;2.62;;;9.60;80.50;;;;;;10943115;32;20110;-73
2022/01/11 11:58:41;;;;;;;3.87;2.47;;;9.70;80.30;;;;;;10946534;32;20023;-73
2022/01/11 12:04:52;;;;;;;4.97;2.28;;;9.70;80.10;;;;;;10941680;32;20026;-74
2022/01/11 12:10:57;;;;;;;6.57;2.28;;;9.70;80.90;;;;;;10946117;32;20054;-74
2022/01/11 12:17:23;;;;;;;5.43;2.55;;;9.70;81.00;;;;;;10945651;32;20045;-74
2022/01/11 12:23:34;;;;;;;17.98;2.90;;;9.80;80.60;;;;;;10945675;32;20438;-74
2022/01/11 12:29:59;;;;;;;6.20;3.28;;;9.90;80.50;;;;;;10945682;32;20089;-74
2022/01/11 12:36:06;;;;;;;4.78;2.47;;;9.70;79.70;;;;;;10943662;32;20030;-74
2022/01/11 12:42:25;;;;;;;5.55;3.60;;;9.70;79.30;;;;;;10945092;32;20084;-74
2022/01/11 12:48:42;;;;;;;;;;;9.70;80.50;;;;;;10944855;32;20022;-74
2022/01/11 12:54:51;;;;;;;5.68;3.10;;;9.80;79.30;;;;;;10945428;32;19937;-74
2022/01/11 13:00:53;;;;;;;4.27;2.70;;;9.90;78.90;;;;;;10944351;32;20042;-74
2022/01/11 13:07:17;;;;;;;4.60;2.50;;;9.80;77.40;;;;;;10941655;32;20023;-74
2022/01/11 13:13:24;;;;;;;4.35;2.00;;;9.90;78.60;;;;;;10943415;32;20027;-70
2022/01/11 13:19:33;;;;;;;2.62;1.73;;;10.10;78.80;;;;;;10943000;32;20415;-70
2022/01/11 13:25:38;;;;;;;4.60;2.37;;;10.20;78.40;;;;;;10943401;32;20016;-69
2022/01/11 13:31:40;;;;;;;9.90;2.40;;;10.40;78.20;;;;;;10942236;32;20027;-70
2022/01/11 13:37:42;;;;;;;4.68;2.67;;;10.50;78.40;;;;;;10942215;32;20354;-70
2022/01/11 13:43:48;;;;;;;4.55;2.75;;;10.50;78.10;;;;;;10942740;32;20054;-71
2022/01/11 13:49:53;;;;;;;4.18;2.22;;;10.70;78.80;;;;;;10942264;32;20050;-71
2022/01/11 13:56:09;;;;;;;2.83;1.65;;;10.70;79.20;;;;;;10940986;32;20026;-70
2022/01/11 14:02:18;;;;;;;5.43;2.42;;;10.70;79.90;;;;;;10942318;32;20053;-71
2022/01/11 14:08:29;;;;;;;6.05;2.40;;;10.70;79.50;;;;;;10941200;32;20023;-71
2022/01/11 14:14:32;;;;;;;5.15;2.28;;;10.70;79.60;;;;;;10942107;32;20328;-71
2022/01/11 14:20:34;;;;;;;3.37;1.83;;;10.70;80.50;;;;;;10938621;32;20054;-75
2022/01/11 14:26:36;;;;;;;5.37;2.12;;;10.90;80.30;;;;;;10940406;32;20081;-75
2022/01/11 14:33:06;;;;;;;5.82;2.65;;;11.50;80.00;;;;;;10941372;32;20023;-75
2022/01/11 14:39:11;;;;;;;4.10;2.53;;;11.80;79.70;;;;;;10938869;32;20058;-75
2022/01/11 14:45:21;;;;;;;4.80;2.13;;;12.00;79.10;;;;;;10532246;32;12087560;-75
2022/01/11 14:51:24;;;;;;;3.70;2.40;;;12.30;78.90;;;;;;10893649;32;20131;-75
2022/01/11 14:57:27;;;;;;;5.68;3.15;;;12.00;80.00;;;;;;10869617;32;20031;-75
2022/01/11 15:03:35;;;;;;;4.53;2.78;;;11.60;80.90;;;;;;10863546;32;20031;-75
2022/01/11 15:09:44;;;;;;;5.93;2.80;;;11.30;81.20;;;;;;10912250;32;20019;-75
2022/01/11 15:15:47;;;;;;;4.45;2.45;;;11.20;81.60;;;;;;10924221;32;20376;-75
2022/01/11 15:21:49;;;;;;;5.82;3.15;;;10.90;81.30;;;;;;10939083;32;20358;-75
2022/01/11 15:27:51;;;;;;;5.22;2.62;;;11.20;81.60;;;;;;10939081;32;20317;-75
2022/01/11 15:33:54;;;;;;;10.05;4.70;;;11.10;81.00;;;;;;10940471;32;20336;-75
2022/01/11 15:39:57;;;;;;;10.35;4.97;;;10.70;81.40;;;;;;10944823;32;20042;-74
2022/01/11 15:46:00;;;;;;;6.40;3.50;;;10.30;81.50;;;;;;10947099;32;20041;-75
2022/01/11 15:52:03;;;;;;;8.45;4.37;;;10.00;81.60;;;;;;10944716;32;20027;-74
2022/01/11 15:58:05;;;;;;;10.07;5.37;;;9.80;81.80;;;;;;10946669;32;20027;-70
2022/01/11 16:04:07;;;;;;;7.00;4.55;;;9.60;81.90;;;;;;10946516;32;20441;-70
2022/01/11 16:10:09;;;;;;;8.98;5.90;;;9.50;82.20;;;;;;10946333;32;20285;-70
2022/01/11 16:16:12;;;;;;;10.68;6.82;;;9.30;82.30;;;;;;10945477;32;20203;-69
2022/01/11 16:22:14;;;;;;;10.38;5.97;;;9.20;82.00;;;;;;10944821;32;20447;-69
2022/01/11 16:28:16;;;;;;;12.85;8.60;;;9.10;82.10;;;;;;10945565;32;20046;-69
2022/01/11 16:34:18;;;;;;;13.68;8.02;;;8.90;82.30;;;;;;10955594;32;20365;-74
2022/01/11 16:46:39;;;;;;;20.70;10.23;;;8.80;82.40;;;;;;10981469;32;20391;-74
2022/01/11 16:52:41;;;;;;;11.48;8.65;;;8.70;82.40;;;;;;10982000;32;20057;-74
2022/01/11 16:58:44;;;;;;;11.43;7.20;;;8.60;82.30;;;;;;10979764;32;20062;-74
2022/01/11 17:04:46;;;;;;;11.57;7.82;;;8.50;82.20;;;;;;10957988;32;20046;-74
2022/01/11 17:10:48;;;;;;;12.68;7.55;;;8.40;82.00;;;;;;10930746;32;20089;-74
2022/01/11 17:16:51;;;;;;;12.43;8.20;;;8.10;82.30;;;;;;10944067;32;20425;-74
2022/01/11 17:22:53;;;;;;;14.82;9.52;;;8.10;82.20;;;;;;10939396;32;20045;-75
2022/01/11 17:28:55;;;;;;;16.73;10.25;;;7.90;82.10;;;;;;10943560;32;20019;-74
2022/01/11 17:34:57;;;;;;;13.52;9.15;;;7.90;82.10;;;;;;10943340;32;20016;-74
2022/01/11 17:40:59;;;;;;;14.90;9.40;;;7.90;81.70;;;;;;10938805;32;20077;-74
2022/01/11 17:47:02;;;;;;;17.25;9.98;;;7.90;81.90;;;;;;10960167;27;20038;-74
2022/01/11 17:53:05;;;;;;;13.32;8.65;;;7.70;81.70;;;;;;10980419;32;20049;-74
2022/01/11 17:59:07;;;;;;;13.82;8.07;;;7.60;81.60;;;;;;10979912;32;20023;-74
2022/01/11 18:05:09;;;;;;;12.23;7.87;;;7.50;81.40;;;;;;10980106;32;20061;-74
2022/01/11 18:11:14;;;;;;;10.55;7.10;;;7.40;81.40;;;;;;10980125;32;20049;-74
2022/01/11 18:17:18;;;;;;;12.90;8.40;;;7.40;81.20;;;;;;10979872;32;20335;-74
2022/01/11 18:23:21;;;;;;;12.23;8.23;;;7.20;81.40;;;;;;10961916;32;20026;-74
2022/01/11 18:29:23;;;;;;;13.48;7.95;;;7.20;81.30;;;;;;10964146;32;20305;-74
2022/01/11 18:35:28;;;;;;;11.60;7.80;;;7.00;81.30;;;;;;10979181;32;20045;-74
2022/01/11 18:41:31;;;;;;;11.30;7.07;;;7.00;81.40;;;;;;10979266;32;20030;-74
2022/01/11 18:47:34;;;;;;;14.00;9.32;;;7.00;81.30;;;;;;10979202;32;20019;-74
2022/01/11 18:53:36;;;;;;;11.30;8.68;;;7.00;81.10;;;;;;10978870;32;20019;-74
2022/01/11 18:59:42;;;;;;;13.05;8.35;;;7.00;81.20;;;;;;10950720;32;20070;-74
2022/01/11 19:05:46;;;;;;;17.67;9.85;;;7.00;81.20;;;;;;10940998;32;20399;-74
2022/01/11 19:11:48;;;;;;;16.10;9.50;;;6.90;81.10;;;;;;10941487;32;20054;-74
2022/01/11 19:17:52;;;;;;;17.70;11.68;;;6.80;81.20;;;;;;10943976;32;20034;-74
2022/01/11 19:23:54;;;;;;;15.23;10.98;;;6.70;81.30;;;;;;10946679;32;20023;-74
2022/01/11 19:30:00;;;;;;;16.80;11.85;;;6.70;81.40;;;;;;10944328;32;20077;-74
2022/01/11 19:36:02;;;;;;;15.52;10.60;;;6.70;81.40;;;;;;10947337;32;20031;-74
2022/01/11 19:42:05;;;;;;;16.27;11.52;;;6.70;81.40;;;;;;10946837;32;20027;-73
2022/01/11 19:48:07;;;;;;;33.17;14.93;;;6.70;81.30;;;;;;10942314;32;20074;-73
2022/01/11 19:54:11;;;;;;;20.15;13.20;;;6.60;81.50;;;;;;10943968;32;20023;-73
2022/01/11 20:00:18;;;;;;;23.70;14.43;;;6.60;82.00;;;;;;10946814;32;20054;-74
2022/01/11 20:06:21;;;;;;;16.80;11.70;;;6.60;82.30;;;;;;10946547;32;20041;-74
2022/01/11 20:12:23;;;;;;;17.65;10.80;;;6.60;82.40;;;;;;10932746;32;20027;-75
2022/01/11 20:18:26;;;;;;;18.20;12.88;;;6.70;82.10;;;;;;10945972;32;20041;-70
2022/01/11 20:30:50;;;;;;;19.73;11.35;;;6.70;82.40;;;;;;10943003;32;20332;-74
2022/01/11 20:36:54;;;;;;;14.90;11.98;;;6.70;82.30;;;;;;10927970;32;20034;-70
2022/01/11 20:42:57;;;;;;;15.63;10.10;;;6.50;82.20;;;;;;10940176;32;20352;-70
2022/01/11 20:49:04;;;;;;;15.50;11.25;;;6.50;82.30;;;;;;10944066;32;20043;-69
2022/01/11 20:55:19;;;;;;;17.85;11.35;;;6.40;82.20;;;;;;10944468;32;20434;-69
2022/01/11 21:01:24;;;;;;;21.62;12.80;;;6.40;82.00;;;;;;10944044;32;20080;-70
2022/01/11 21:07:26;;;;;;;25.65;15.10;;;6.30;82.30;;;;;;10929855;32;20031;-69
2022/01/11 21:13:53;;;;;;;17.73;11.93;;;6.30;82.30;;;;;;10941305;32;20027;-69
2022/01/11 21:20:09;;;;;;;18.12;13.82;;;6.30;82.20;;;;;;10926211;32;20019;-69
2022/01/11 21:26:19;;;;;;;18.98;13.50;;;6.20;82.20;;;;;;10943458;32;20076;-69
2022/01/11 21:32:29;;;;;;;22.27;15.45;;;6.20;81.90;;;;;;10943320;32;20204;-69
2022/01/11 21:38:51;;;;;;;30.00;21.75;;;6.20;81.80;;;;;;10929841;32;20027;-69
2022/01/11 21:44:56;;;;;;;19.40;13.75;;;6.20;81.80;;;;;;10943212;32;20195;-69
2022/01/11 21:51:01;;;;;;;25.60;16.23;;;6.00;81.70;;;;;;10942850;32;20062;-69
2022/01/11 21:57:11;;;;;;;29.70;21.50;;;5.90;81.80;;;;;;10927447;32;20019;-70
2022/01/11 22:03:19;;;;;;;25.48;17.52;;;5.80;81.90;;;;;;10939978;32;20066;-69
2022/01/11 22:10:11;;;;;;;;;;;5.70;81.90;;;;;;10943291;32;20085;-69
2022/01/11 22:22:53;;;;;;;25.00;16.50;;;5.50;81.60;;;;;;10825785;32;20423;-69
2022/01/11 22:28:55;;;;;;;20.60;13.88;;;5.50;81.60;;;;;;10810419;33;20042;-70
2022/01/11 22:34:57;;;;;;;24.20;15.18;;;5.40;81.80;;;;;;10822462;33;20028;-70
2022/01/11 22:41:00;;;;;;;21.55;12.00;;;5.40;82.20;;;;;;10826318;33;20085;-70
2022/01/11 22:47:30;;;;;;;18.65;12.10;;;5.20;80.80;;;;;;10827360;32;20023;-70
2022/01/11 22:53:32;;;;;;;18.42;12.48;;;5.10;82.30;;;;;;10924506;32;20050;-70
2022/01/11 22:59:35;;;;;;;19.42;11.80;;;5.20;82.10;;;;;;10945901;32;20023;-70
2022/01/11 23:05:38;;;;;;;18.48;11.63;;;5.10;81.70;;;;;;10948425;32;20054;-70
2022/01/11 23:11:47;;;;;;;21.00;14.05;;;5.00;82.20;;;;;;10948509;32;20050;-73
2022/01/11 23:17:49;;;;;;;;;;;5.10;81.90;;;;;;10945538;32;20382;-73
2022/01/11 23:23:51;;;;;;;17.35;11.88;;;5.00;81.80;;;;;;10948163;32;19930;-73
2022/01/11 23:29:54;;;;;;;16.83;9.93;;;4.90;82.00;;;;;;10947954;32;20031;-73
2022/01/11 23:35:57;;;;;;;20.73;12.68;;;4.80;82.10;;;;;;10947870;32;20065;-73
2022/01/11 23:48:01;;;;;;;22.30;13.80;;;5.00;82.30;;;;;;10947256;32;20022;-74
2022/01/11 23:54:04;;;;;;;16.25;8.48;;;5.10;82.40;;;;;;10943686;32;20319;-74
